Time;durP1;ratioP1;P1;durP2;ratioP2;P2;SDS_P1;SDS_P2;PMS_P1;PMS_P2;Temp;Humidity;BMP_temperature;BMP_pressure;BME280_temperature;BME280_humidity;BME280_pressure;Samples;Min_cycle;Max_cycle;Signal;HPM_P1;HPM_P2
2021/01/24 00:01:01;;;;;;;10.20;8.57;;;2.40;99.90;;;;;;5032298;28;20260;-56
2021/01/24 00:03:29;;;;;;;7.78;6.18;;;2.40;99.90;;;;;;5032396;28;20543;-59
2021/01/24 00:05:57;;;;;;;11.35;6.32;;;2.40;99.90;;;;;;5032743;28;20193;-59
2021/01/24 00:08:24;;;;;;;11.95;7.95;;;2.40;99.90;;;;;;5032347;28;20174;-59
2021/01/24 00:10:51;;;;;;;19.42;8.75;;;2.30;99.90;;;;;;5032650;28;20206;-56
2021/01/24 00:13:19;;;;;;;11.23;6.95;;;2.30;99.90;;;;;;5033307;28;20680;-56
2021/01/24 00:15:46;;;;;;;17.30;10.25;;;2.30;99.90;;;;;;5032870;28;20252;-54
2021/01/24 00:18:13;;;;;;;9.10;5.60;;;2.30;99.90;;;;;;5034129;28;20244;-59
2021/01/24 00:20:40;;;;;;;10.63;7.57;;;2.30;99.90;;;;;;5015310;28;20507;-58
2021/01/24 00:23:08;;;;;;;8.35;5.53;;;2.40;99.90;;;;;;5034932;28;20205;-56
2021/01/24 00:25:36;;;;;;;10.95;7.85;;;2.40;99.90;;;;;;5034649;28;20264;-55
2021/01/24 00:28:04;;;;;;;11.07;5.72;;;2.40;99.90;;;;;;5017528;28;20202;-55
2021/01/24 00:30:31;;;;;;;11.40;5.60;;;2.40;99.90;;;;;;5032410;28;20701;-58
2021/01/24 00:32:58;;;;;;;8.32;6.07;;;2.50;99.90;;;;;;5031922;28;20196;-56
2021/01/24 00:35:26;;;;;;;9.15;6.78;;;2.50;99.90;;;;;;5032440;28;20613;-57
2021/01/24 00:37:53;;;;;;;9.23;6.35;;;2.50;99.90;;;;;;5032255;28;20561;-56
2021/01/24 00:40:22;;;;;;;9.55;6.60;;;2.50;99.90;;;;;;5031679;28;20209;-58
2021/01/24 00:42:49;;;;;;;14.75;6.30;;;2.50;99.90;;;;;;5031585;28;20173;-55
2021/01/24 00:45:16;;;;;;;16.48;8.45;;;2.60;99.90;;;;;;5032180;28;20268;-55
2021/01/24 00:47:43;;;;;;;11.13;6.95;;;2.60;99.90;;;;;;5032289;28;20273;-60
2021/01/24 00:50:11;;;;;;;11.77;6.85;;;2.70;99.90;;;;;;5032061;28;20201;-57
2021/01/24 00:52:38;;;;;;;8.60;6.75;;;2.70;99.90;;;;;;5032120;28;20670;-57
2021/01/24 00:55:06;;;;;;;12.40;7.47;;;2.80;99.90;;;;;;5014817;28;20666;-56
2021/01/24 00:57:35;;;;;;;6.22;5.55;;;2.80;99.90;;;;;;5014961;28;20309;-59
2021/01/24 01:00:03;;;;;;;11.38;7.10;;;2.80;99.90;;;;;;5014872;28;20185;-58
2021/01/24 01:02:30;;;;;;;9.63;4.90;;;2.70;99.90;;;;;;5032521;28;20207;-57
2021/01/24 01:04:57;;;;;;;14.00;8.70;;;2.70;99.90;;;;;;5032411;28;20181;-56
2021/01/24 01:07:24;;;;;;;6.18;5.10;;;2.70;99.90;;;;;;5032151;28;20212;-60
2021/01/24 01:09:51;;;;;;;13.77;7.63;;;2.70;99.90;;;;;;5032030;28;20217;-61
2021/01/24 01:12:19;;;;;;;14.90;7.78;;;2.70;99.90;;;;;;5032420;28;20272;-60
2021/01/24 01:14:46;;;;;;;13.52;8.50;;;2.70;99.90;;;;;;5031954;28;20251;-59
2021/01/24 01:17:13;;;;;;;15.07;8.38;;;2.80;99.90;;;;;;5032588;28;20787;-60
2021/01/24 01:19:41;;;;;;;13.85;8.25;;;2.80;99.90;;;;;;5032320;28;20170;-59
2021/01/24 01:22:09;;;;;;;12.80;8.05;;;2.80;99.90;;;;;;5032604;28;20205;-60
2021/01/24 01:24:36;;;;;;;15.43;7.43;;;2.80;99.90;;;;;;5032149;28;20215;-60
2021/01/24 01:27:03;;;;;;;11.25;6.63;;;2.80;99.90;;;;;;5033026;28;20544;-60
2021/01/24 01:29:30;;;;;;;11.38;6.97;;;2.80;99.90;;;;;;5032117;28;20192;-55
2021/01/24 01:31:58;;;;;;;7.97;6.15;;;2.80;99.90;;;;;;5032403;28;20300;-58
2021/01/24 01:34:25;;;;;;;8.77;5.68;;;2.80;99.90;;;;;;5032328;28;20173;-60
2021/01/24 01:36:52;;;;;;;12.27;6.03;;;2.70;99.90;;;;;;5032804;28;20174;-58
2021/01/24 01:39:19;;;;;;;7.97;5.18;;;2.60;99.90;;;;;;5032103;28;20185;-60
2021/01/24 01:41:46;;;;;;;7.30;4.45;;;2.60;99.90;;;;;;5032066;28;20223;-59
2021/01/24 01:44:13;;;;;;;14.13;9.20;;;2.70;99.90;;;;;;5031485;28;20678;-60
2021/01/24 01:46:41;;;;;;;9.40;6.78;;;2.70;99.90;;;;;;5031436;28;20197;-58
2021/01/24 01:49:09;;;;;;;11.93;7.68;;;2.80;99.90;;;;;;5032025;28;20342;-59
2021/01/24 01:51:36;;;;;;;15.60;7.40;;;2.80;99.90;;;;;;5031992;28;20220;-60
2021/01/24 01:54:05;;;;;;;5.35;4.40;;;2.80;99.90;;;;;;5031463;28;20688;-61
2021/01/24 01:56:33;;;;;;;13.93;5.88;;;2.80;99.90;;;;;;5031989;28;20253;-59
2021/01/24 01:59:00;;;;;;;9.25;5.93;;;2.80;99.90;;;;;;5031257;28;20213;-60
2021/01/24 02:01:33;;;;;;;9.90;5.95;;;2.70;99.90;;;;;;5031042;28;20213;-57
2021/01/24 02:04:10;;;;;;;12.85;6.45;;;2.70;99.90;;;;;;5031425;28;20174;-55
2021/01/24 02:06:44;;;;;;;11.20;6.40;;;2.70;99.90;;;;;;5030999;28;20280;-59
2021/01/24 02:09:19;;;;;;;9.73;7.30;;;2.70;99.90;;;;;;5031283;28;20169;-57
2021/01/24 02:11:52;;;;;;;6.80;5.60;;;2.60;99.90;;;;;;5031008;28;20216;-60
2021/01/24 02:14:26;;;;;;;8.60;7.15;;;2.60;99.90;;;;;;5013205;28;20196;-56
2021/01/24 02:16:55;;;;;;;8.05;5.82;;;2.70;99.90;;;;;;5031684;28;20547;-60
2021/01/24 02:19:33;;;;;;;11.98;5.88;;;2.70;99.90;;;;;;5030857;28;20224;-60
2021/01/24 02:22:01;;;;;;;8.88;4.85;;;2.70;99.90;;;;;;5030483;28;20729;-60
2021/01/24 02:24:35;;;;;;;9.82;6.57;;;2.80;99.90;;;;;;5031543;28;20182;-58
2021/01/24 02:27:12;;;;;;;7.60;6.45;;;2.80;99.90;;;;;;5034598;28;20281;-59
2021/01/24 02:29:50;;;;;;;7.30;5.00;;;2.80;99.90;;;;;;5034476;28;20646;-60
2021/01/24 02:32:23;;;;;;;8.13;5.78;;;2.80;99.90;;;;;;5035796;28;20656;-57
2021/01/24 02:34:52;;;;;;;12.25;6.50;;;2.70;99.90;;;;;;5036094;28;20216;-56
2021/01/24 02:37:20;;;;;;;14.35;9.45;;;2.80;99.90;;;;;;5035667;28;20200;-59
2021/01/24 02:39:48;;;;;;;9.93;6.55;;;2.80;99.90;;;;;;5034379;28;20194;-58
2021/01/24 02:42:16;;;;;;;6.88;6.18;;;2.70;99.90;;;;;;5034046;28;20692;-54
2021/01/24 02:44:45;;;;;;;9.48;7.72;;;2.70;99.90;;;;;;5034348;28;20540;-57
2021/01/24 02:47:12;;;;;;;10.73;7.50;;;2.80;99.90;;;;;;5034186;28;20197;-59
2021/01/24 02:49:44;;;;;;;7.88;5.13;;;2.90;99.90;;;;;;5034087;28;20182;-57
2021/01/24 02:52:12;;;;;;;9.60;6.93;;;2.80;99.90;;;;;;5033335;28;20304;-60
2021/01/24 02:54:40;;;;;;;7.25;6.15;;;2.90;99.90;;;;;;5034439;28;20288;-58
2021/01/24 02:57:08;;;;;;;13.73;7.32;;;2.90;99.90;;;;;;5034157;28;20178;-60
2021/01/24 02:59:36;;;;;;;16.30;8.07;;;2.90;99.90;;;;;;5034254;28;20224;-59
2021/01/24 03:02:05;;;;;;;10.27;6.90;;;2.90;99.90;;;;;;5033783;28;20208;-60
2021/01/24 03:04:32;;;;;;;10.98;6.30;;;2.90;99.90;;;;;;5033881;28;20217;-60
2021/01/24 03:07:01;;;;;;;12.15;6.95;;;2.90;99.90;;;;;;5034245;28;20292;-60
2021/01/24 03:09:28;;;;;;;11.30;8.07;;;2.90;99.90;;;;;;5034281;28;20178;-59
2021/01/24 03:11:59;;;;;;;13.98;8.85;;;2.90;99.90;;;;;;5034081;28;20231;-60
2021/01/24 03:14:27;;;;;;;10.18;6.65;;;2.80;99.90;;;;;;5034155;28;20232;-60
2021/01/24 03:16:57;;;;;;;16.17;7.97;;;2.70;99.90;;;;;;5016197;28;20197;-58
2021/01/24 03:19:27;;;;;;;15.73;7.20;;;2.70;99.90;;;;;;5033665;28;20200;-60
2021/01/24 03:21:54;;;;;;;11.30;7.22;;;2.60;99.90;;;;;;5033535;28;20205;-56
2021/01/24 03:24:24;;;;;;;10.52;6.60;;;2.60;99.90;;;;;;5033435;28;20174;-57
2021/01/24 03:26:52;;;;;;;13.15;7.97;;;2.40;99.90;;;;;;5033384;28;20193;-58
2021/01/24 03:29:19;;;;;;;9.45;6.38;;;2.40;99.90;;;;;;5033576;28;20235;-55
2021/01/24 03:31:47;;;;;;;10.90;7.47;;;2.30;99.90;;;;;;5033561;28;20690;-56
2021/01/24 03:34:20;;;;;;;17.48;8.75;;;2.30;99.90;;;;;;5033386;28;20190;-55
2021/01/24 03:36:49;;;;;;;10.73;8.20;;;2.30;99.90;;;;;;5032849;28;20202;-58
2021/01/24 03:39:17;;;;;;;9.60;7.40;;;2.30;99.90;;;;;;5033245;28;20228;-54
2021/01/24 03:41:46;;;;;;;19.58;8.30;;;2.40;99.90;;;;;;5033050;28;20614;-58
2021/01/24 03:44:13;;;;;;;11.57;7.82;;;2.50;99.90;;;;;;5033185;28;20226;-59
2021/01/24 03:46:41;;;;;;;11.73;7.72;;;2.50;99.90;;;;;;5033264;28;20235;-59
2021/01/24 03:49:08;;;;;;;17.60;9.02;;;2.50;99.90;;;;;;5033643;28;20646;-57
2021/01/24 03:51:44;;;;;;;16.90;9.23;;;2.50;99.90;;;;;;5033625;28;20200;-59
2021/01/24 03:54:11;;;;;;;13.90;8.75;;;2.50;99.90;;;;;;5033385;28;20200;-59
2021/01/24 03:56:39;;;;;;;15.00;9.10;;;2.50;99.90;;;;;;5033279;28;20174;-60
2021/01/24 03:59:07;;;;;;;11.02;6.43;;;2.60;99.90;;;;;;5033467;28;20185;-58
2021/01/24 04:01:34;;;;;;;10.80;7.05;;;2.60;99.90;;;;;;5033029;28;20209;-60
2021/01/24 04:04:02;;;;;;;9.63;6.38;;;2.60;99.90;;;;;;5033200;28;20182;-56
2021/01/24 04:06:29;;;;;;;17.05;10.20;;;2.50;99.90;;;;;;5033383;28;20284;-59
2021/01/24 04:08:56;;;;;;;22.85;10.98;;;2.60;99.90;;;;;;5032916;28;20224;-58
2021/01/24 04:11:23;;;;;;;11.63;7.82;;;2.60;99.90;;;;;;5033110;28;20220;-59
2021/01/24 04:13:50;;;;;;;16.30;7.65;;;2.60;99.90;;;;;;5033564;28;20583;-60
2021/01/24 04:16:18;;;;;;;11.18;6.32;;;2.70;99.90;;;;;;5033265;28;20213;-60
2021/01/24 04:18:45;;;;;;;15.95;9.27;;;2.70;99.90;;;;;;5033134;28;20178;-60
2021/01/24 04:21:12;;;;;;;12.60;8.00;;;2.70;99.90;;;;;;5033153;28;20681;-60
2021/01/24 04:23:39;;;;;;;13.05;8.65;;;2.70;99.90;;;;;;5033291;28;20630;-59
2021/01/24 04:26:07;;;;;;;11.95;7.75;;;2.70;99.90;;;;;;5033337;28;20197;-58
2021/01/24 04:28:33;;;;;;;14.27;7.60;;;2.70;99.90;;;;;;5033144;28;20570;-59
2021/01/24 04:31:00;;;;;;;18.27;10.13;;;2.70;99.90;;;;;;5033532;28;20213;-60
2021/01/24 04:33:29;;;;;;;15.02;10.05;;;2.70;99.90;;;;;;5033191;28;20181;-60
2021/01/24 04:35:56;;;;;;;10.68;7.90;;;2.80;99.90;;;;;;5033410;28;20535;-61
2021/01/24 04:38:23;;;;;;;8.18;6.35;;;2.80;99.90;;;;;;5032997;28;20213;-60
2021/01/24 04:40:50;;;;;;;7.82;6.07;;;2.90;99.90;;;;;;5032624;28;20511;-59
2021/01/24 04:43:17;;;;;;;8.10;4.75;;;3.00;99.90;;;;;;5032564;28;20209;-58
2021/01/24 04:45:45;;;;;;;10.23;7.10;;;3.00;99.90;;;;;;5032415;28;20558;-57
2021/01/24 04:48:12;;;;;;;6.57;4.90;;;3.00;99.90;;;;;;5032311;28;20280;-60
2021/01/24 04:50:41;;;;;;;11.95;7.20;;;2.90;99.90;;;;;;5032348;28;20205;-57
2021/01/24 04:53:08;;;;;;;7.75;5.47;;;2.90;99.90;;;;;;5032260;28;20217;-60
2021/01/24 04:55:39;;;;;;;11.25;5.65;;;2.90;99.90;;;;;;5032223;28;20600;-58
2021/01/24 04:58:07;;;;;;;8.40;5.28;;;2.90;99.90;;;;;;5032427;28;20648;-60
2021/01/24 05:00:34;;;;;;;8.57;5.22;;;2.90;99.90;;;;;;5032177;28;20692;-59
2021/01/24 05:03:02;;;;;;;6.15;5.05;;;2.90;99.90;;;;;;5032504;28;20178;-57
2021/01/24 05:05:29;;;;;;;7.93;5.47;;;2.90;99.90;;;;;;5032302;28;20185;-54
2021/01/24 05:07:58;;;;;;;10.07;5.15;;;2.90;99.90;;;;;;5032161;28;20758;-60
2021/01/24 05:10:26;;;;;;;10.45;4.68;;;2.80;99.90;;;;;;5032073;28;20209;-56
2021/01/24 05:12:53;;;;;;;7.93;4.40;;;2.70;99.90;;;;;;5032292;28;20190;-59
2021/01/24 05:15:20;;;;;;;7.38;3.80;;;2.70;99.90;;;;;;5032177;28;20178;-59
2021/01/24 05:17:52;;;;;;;5.45;3.75;;;2.60;99.90;;;;;;5032099;28;20204;-59
2021/01/24 05:20:24;;;;;;;12.40;5.45;;;2.60;99.90;;;;;;5031837;28;20209;-58
2021/01/24 05:22:52;;;;;;;6.22;4.82;;;2.60;99.90;;;;;;5032954;28;20264;-60
2021/01/24 05:25:23;;;;;;;3.00;2.22;;;2.50;99.90;;;;;;5033210;28;20260;-56
2021/01/24 05:27:51;;;;;;;5.45;4.03;;;2.50;99.90;;;;;;5033989;28;20204;-60
2021/01/24 05:30:23;;;;;;;6.78;3.60;;;2.50;99.90;;;;;;5035030;28;20300;-59
2021/01/24 05:32:53;;;;;;;5.28;3.50;;;2.50;99.90;;;;;;5035719;28;20182;-58
2021/01/24 05:35:20;;;;;;;10.63;6.38;;;2.40;99.90;;;;;;5034202;28;20204;-58
2021/01/24 05:37:47;;;;;;;6.00;4.00;;;2.50;99.90;;;;;;5033470;28;20178;-58
2021/01/24 05:40:15;;;;;;;8.07;5.15;;;2.50;99.90;;;;;;5032643;28;20553;-60
2021/01/24 05:42:45;;;;;;;6.22;4.22;;;2.50;99.90;;;;;;5032383;28;20184;-60
2021/01/24 05:45:13;;;;;;;6.30;4.18;;;2.50;99.90;;;;;;5032617;28;20712;-58
2021/01/24 05:47:42;;;;;;;7.18;3.88;;;2.60;99.90;;;;;;5031761;28;20229;-60
2021/01/24 05:50:11;;;;;;;4.45;3.45;;;2.60;99.90;;;;;;5032413;28;20219;-57
2021/01/24 05:52:46;;;;;;;7.22;2.85;;;2.50;99.90;;;;;;5032077;28;20181;-59
2021/01/24 05:55:30;;;;;;;9.75;4.65;;;2.50;99.90;;;;;;5032400;28;20181;-60
2021/01/24 05:57:59;;;;;;;5.97;2.83;;;2.50;99.90;;;;;;5032347;28;20177;-60
2021/01/24 06:00:26;;;;;;;4.53;2.95;;;2.50;99.90;;;;;;5034137;28;20209;-59
2021/01/24 06:02:54;;;;;;;7.75;4.07;;;2.40;99.90;;;;;;5035759;28;20182;-59
2021/01/24 06:05:23;;;;;;;3.40;3.08;;;2.40;99.90;;;;;;5035556;28;20194;-58
2021/01/24 06:07:50;;;;;;;6.00;3.05;;;2.30;99.90;;;;;;5035480;28;20201;-58
2021/01/24 06:10:17;;;;;;;8.35;3.05;;;2.30;99.90;;;;;;5035378;28;20216;-58
2021/01/24 06:12:46;;;;;;;5.85;4.13;;;2.20;99.90;;;;;;5035497;28;20185;-57
2021/01/24 06:15:16;;;;;;;6.78;5.28;;;2.30;99.90;;;;;;5035401;28;20678;-58
2021/01/24 06:17:45;;;;;;;6.80;4.13;;;2.30;99.90;;;;;;5035406;28;20186;-58
2021/01/24 06:20:16;;;;;;;4.82;2.97;;;2.40;99.90;;;;;;5035356;28;20892;-58
2021/01/24 06:22:47;;;;;;;6.18;3.50;;;2.40;99.90;;;;;;5035471;28;20190;-60
2021/01/24 06:25:18;;;;;;;5.05;2.80;;;2.40;99.90;;;;;;5017648;28;20190;-56
2021/01/24 06:27:51;;;;;;;8.80;3.97;;;2.40;99.90;;;;;;5034963;28;20208;-54
2021/01/24 06:30:20;;;;;;;3.45;2.55;;;2.40;99.90;;;;;;5034741;28;20246;-52
2021/01/24 06:32:48;;;;;;;5.20;3.88;;;2.40;99.90;;;;;;5034230;28;20197;-57
2021/01/24 06:35:20;;;;;;;5.80;3.20;;;2.40;99.90;;;;;;5016658;28;20216;-53
2021/01/24 06:37:53;;;;;;;5.38;2.67;;;2.30;99.90;;;;;;5034240;28;20587;-54
2021/01/24 06:40:22;;;;;;;4.85;2.15;;;2.20;99.90;;;;;;5034325;28;20301;-53
2021/01/24 06:42:54;;;;;;;4.70;2.60;;;2.20;99.90;;;;;;5034517;28;20189;-58
2021/01/24 06:45:42;;;;;;;5.28;2.45;;;2.30;99.90;;;;;;5036279;28;20606;-55
2021/01/24 06:48:14;;;;;;;4.57;3.85;;;2.30;99.90;;;;;;5036939;28;20689;-56
2021/01/24 06:50:47;;;;;;;3.65;2.35;;;2.20;99.90;;;;;;5034402;28;20205;-58
2021/01/24 06:53:20;;;;;;;6.05;2.90;;;2.30;99.90;;;;;;5034115;28;20325;-52
2021/01/24 06:55:56;;;;;;;5.13;2.83;;;2.20;99.90;;;;;;5033901;28;20188;-58
2021/01/24 06:58:30;;;;;;;4.75;2.95;;;2.30;99.90;;;;;;5034140;28;20563;-54
2021/01/24 07:01:24;;;;;;;5.45;2.70;;;2.30;99.90;;;;;;5033914;28;20284;-57
2021/01/24 07:04:30;;;;;;;5.78;3.70;;;2.30;99.90;;;;;;5033919;28;20189;-58
2021/01/24 07:06:58;;;;;;;6.07;4.50;;;2.30;99.90;;;;;;5033899;28;20227;-58
2021/01/24 07:09:39;;;;;;;3.63;2.33;;;2.30;99.90;;;;;;5034046;28;20564;-60
2021/01/24 07:12:07;;;;;;;6.13;2.80;;;2.40;99.90;;;;;;5032758;28;20209;-57
2021/01/24 07:14:46;;;;;;;4.38;3.70;;;2.40;99.90;;;;;;5034409;28;20227;-58
2021/01/24 07:17:15;;;;;;;5.88;4.25;;;2.40;99.90;;;;;;5034391;28;20177;-57
2021/01/24 07:19:45;;;;;;;5.22;3.20;;;2.30;99.90;;;;;;5034057;28;20189;-54
2021/01/24 07:22:12;;;;;;;4.60;3.22;;;2.40;99.90;;;;;;5034269;28;20243;-58
2021/01/24 07:24:41;;;;;;;5.20;3.85;;;2.40;99.90;;;;;;5034931;28;20516;-57
2021/01/24 07:27:10;;;;;;;5.05;4.10;;;2.40;99.90;;;;;;5034901;28;20201;-56
2021/01/24 07:29:37;;;;;;;5.30;4.70;;;2.40;99.90;;;;;;5035096;28;20197;-56
2021/01/24 07:32:06;;;;;;;2.65;1.83;;;2.40;99.90;;;;;;5034334;28;20213;-57
2021/01/24 07:34:34;;;;;;;3.70;1.35;;;2.40;99.90;;;;;;5033812;28;20189;-55
2021/01/24 07:37:03;;;;;;;4.90;4.05;;;2.30;99.90;;;;;;5015568;28;20658;-53
2021/01/24 07:39:30;;;;;;;12.20;4.80;;;2.30;99.90;;;;;;5033527;28;20593;-59
2021/01/24 07:41:57;;;;;;;4.43;3.42;;;2.40;99.90;;;;;;5033196;28;20263;-55
2021/01/24 07:44:25;;;;;;;3.20;2.17;;;2.40;99.90;;;;;;5033200;28;20565;-54
2021/01/24 07:46:52;;;;;;;5.32;3.20;;;2.40;99.90;;;;;;5032969;28;20693;-55
2021/01/24 07:49:20;;;;;;;8.50;4.40;;;2.40;99.90;;;;;;5033118;28;20184;-57
2021/01/24 07:51:48;;;;;;;4.05;2.42;;;2.40;99.90;;;;;;5033207;28;20206;-53
2021/01/24 07:54:16;;;;;;;4.60;3.25;;;2.40;99.90;;;;;;5033492;28;20580;-55
2021/01/24 07:56:44;;;;;;;3.55;3.08;;;2.40;99.90;;;;;;5033292;28;20190;-57
2021/01/24 07:59:11;;;;;;;6.95;4.32;;;2.50;99.90;;;;;;5032927;28;20185;-56
2021/01/24 08:01:38;;;;;;;3.33;3.03;;;2.60;99.90;;;;;;5033057;28;20267;-53
2021/01/24 08:04:06;;;;;;;5.47;3.42;;;2.70;99.90;;;;;;5032987;28;20189;-56
2021/01/24 08:06:34;;;;;;;19.95;3.75;;;2.80;99.90;;;;;;5015116;28;20204;-53
2021/01/24 08:09:03;;;;;;;3.00;2.70;;;2.90;99.90;;;;;;5033740;28;20635;-55
2021/01/24 08:11:31;;;;;;;3.85;2.40;;;2.90;99.90;;;;;;5032927;28;20263;-57
2021/01/24 08:13:59;;;;;;;4.30;2.72;;;2.80;99.90;;;;;;5032870;28;20178;-56
2021/01/24 08:16:30;;;;;;;4.93;3.33;;;2.90;99.90;;;;;;5032458;28;20174;-53
2021/01/24 08:18:58;;;;;;;3.97;3.25;;;3.00;99.90;;;;;;5032243;28;20198;-54
2021/01/24 08:21:26;;;;;;;8.27;2.80;;;3.00;99.90;;;;;;5030945;28;20296;-56
2021/01/24 08:23:53;;;;;;;4.32;1.83;;;2.90;99.90;;;;;;5031923;28;20189;-57
2021/01/24 08:26:21;;;;;;;4.85;4.10;;;2.90;99.90;;;;;;5032381;28;20196;-56
2021/01/24 08:28:49;;;;;;;5.05;3.85;;;3.00;99.90;;;;;;5032146;28;20655;-54
2021/01/24 08:31:20;;;;;;;11.00;4.32;;;3.00;99.90;;;;;;5031914;28;20209;-57
2021/01/24 08:33:48;;;;;;;5.90;4.10;;;2.90;99.90;;;;;;5032387;28;20692;-55
2021/01/24 08:36:17;;;;;;;3.53;2.30;;;2.90;99.90;;;;;;5032051;28;20272;-57
2021/01/24 08:38:46;;;;;;;9.63;3.63;;;2.90;99.90;;;;;;5052223;28;20544;-58
2021/01/24 08:41:14;;;;;;;2.90;2.47;;;2.90;99.90;;;;;;5033461;28;20886;-53
2021/01/24 08:43:43;;;;;;;4.78;2.95;;;2.90;99.90;;;;;;5034982;28;20208;-57
2021/01/24 08:46:18;;;;;;;5.60;2.72;;;2.90;99.90;;;;;;5024673;28;20194;-57
2021/01/24 08:48:57;;;;;;;4.07;3.17;;;2.90;99.90;;;;;;5032178;28;20217;-53
2021/01/24 08:51:24;;;;;;;4.18;3.70;;;3.00;99.90;;;;;;5031868;28;20219;-55
2021/01/24 08:53:51;;;;;;;3.33;2.42;;;3.10;99.90;;;;;;5051778;28;20904;-55
2021/01/24 08:56:22;;;;;;;3.63;3.28;;;3.10;99.90;;;;;;5051930;28;20192;-57
2021/01/24 08:58:50;;;;;;;5.20;3.90;;;3.10;99.90;;;;;;5052307;28;20173;-53
2021/01/24 09:01:17;;;;;;;6.60;4.72;;;3.10;99.90;;;;;;5040778;28;20213;-53
2021/01/24 09:03:44;;;;;;;6.40;2.70;;;3.10;99.90;;;;;;5031965;28;20235;-56
2021/01/24 09:06:15;;;;;;;3.75;3.20;;;3.10;99.90;;;;;;5031854;28;20189;-54
2021/01/24 09:08:46;;;;;;;3.53;2.60;;;3.20;99.90;;;;;;5031818;28;20655;-56
2021/01/24 09:11:13;;;;;;;4.05;2.67;;;3.20;99.90;;;;;;5032005;28;20208;-56
2021/01/24 09:13:40;;;;;;;5.38;4.88;;;3.20;99.90;;;;;;5032326;28;20231;-59
2021/01/24 09:16:08;;;;;;;8.13;2.60;;;3.10;99.90;;;;;;5033221;28;20197;-56
2021/01/24 09:18:35;;;;;;;4.20;2.67;;;3.20;99.90;;;;;;5032705;28;20255;-54
2021/01/24 09:21:06;;;;;;;2.75;2.17;;;3.30;99.90;;;;;;5032112;28;20213;-56
2021/01/24 09:23:33;;;;;;;4.05;2.40;;;3.30;99.90;;;;;;5031974;28;20191;-57
2021/01/24 09:26:00;;;;;;;3.65;2.33;;;3.40;99.90;;;;;;5031790;28;20208;-56
2021/01/24 09:28:27;;;;;;;3.80;3.35;;;3.30;99.90;;;;;;5031786;28;20552;-57
2021/01/24 09:30:54;;;;;;;5.55;3.50;;;3.30;99.90;;;;;;5031400;28;20560;-58
2021/01/24 09:33:22;;;;;;;5.60;3.97;;;3.30;99.90;;;;;;5013802;28;20204;-52
2021/01/24 09:35:49;;;;;;;2.55;2.30;;;3.20;99.90;;;;;;5031053;28;20254;-58
2021/01/24 09:38:17;;;;;;;4.03;2.72;;;3.20;99.90;;;;;;5035423;28;20204;-58
2021/01/24 09:40:44;;;;;;;5.78;3.22;;;3.20;99.90;;;;;;5035857;28;20712;-55
2021/01/24 09:43:11;;;;;;;4.22;3.35;;;3.30;99.90;;;;;;5035606;28;20174;-56
2021/01/24 09:45:38;;;;;;;3.05;2.80;;;3.30;99.90;;;;;;5036012;28;20634;-56
2021/01/24 09:48:07;;;;;;;3.97;2.95;;;3.30;99.90;;;;;;5035932;28;20201;-57
2021/01/24 09:50:35;;;;;;;4.40;3.47;;;3.30;99.90;;;;;;5018045;28;20213;-58
2021/01/24 09:53:02;;;;;;;4.75;3.38;;;3.30;99.90;;;;;;5035365;28;20185;-56
2021/01/24 09:55:29;;;;;;;3.90;3.60;;;3.30;99.90;;;;;;5035367;28;20667;-57
2021/01/24 09:57:56;;;;;;;7.20;3.08;;;3.30;99.90;;;;;;5035435;28;20189;-57
2021/01/24 10:00:23;;;;;;;2.92;2.53;;;3.30;99.90;;;;;;5035345;28;20711;-59
2021/01/24 10:02:51;;;;;;;4.93;2.97;;;3.30;99.90;;;;;;5035182;28;20192;-57
2021/01/24 10:05:18;;;;;;;5.18;2.70;;;3.30;99.90;;;;;;5035257;28;20199;-57
2021/01/24 10:07:46;;;;;;;11.07;4.25;;;3.10;99.90;;;;;;5035242;28;20580;-57
2021/01/24 10:10:14;;;;;;;4.72;3.38;;;3.10;99.90;;;;;;5035603;28;20686;-59
2021/01/24 10:12:42;;;;;;;4.38;2.95;;;3.00;99.90;;;;;;5035452;28;20180;-57
2021/01/24 10:15:11;;;;;;;4.45;3.83;;;3.10;99.90;;;;;;5036125;28;20232;-57
2021/01/24 10:17:38;;;;;;;7.63;3.92;;;3.30;99.90;;;;;;5035995;28;20204;-59
2021/01/24 10:20:07;;;;;;;8.38;5.70;;;3.40;99.90;;;;;;5036065;28;20182;-58
2021/01/24 10:22:34;;;;;;;7.20;3.42;;;3.50;99.90;;;;;;5018671;28;20201;-58
2021/01/24 10:25:02;;;;;;;5.60;3.90;;;3.50;99.90;;;;;;5035130;28;20607;-59
2021/01/24 10:27:30;;;;;;;7.28;4.85;;;3.40;99.90;;;;;;5035467;28;20549;-56
2021/01/24 10:29:57;;;;;;;5.55;3.47;;;3.50;99.90;;;;;;5035569;28;20711;-54
2021/01/24 10:32:24;;;;;;;7.53;2.80;;;3.60;99.90;;;;;;5034666;28;20186;-56
2021/01/24 10:35:00;;;;;;;5.90;3.20;;;3.70;99.90;;;;;;5035509;28;20302;-58
2021/01/24 10:37:27;;;;;;;4.82;3.60;;;3.70;99.90;;;;;;5035620;28;20182;-58
2021/01/24 10:39:54;;;;;;;6.07;3.15;;;3.80;99.90;;;;;;5036553;28;20620;-56
2021/01/24 10:42:22;;;;;;;5.97;2.25;;;3.80;99.90;;;;;;5035085;28;20190;-57
2021/01/24 10:44:49;;;;;;;3.83;2.78;;;3.90;99.90;;;;;;5034382;28;20188;-54
2021/01/24 10:47:16;;;;;;;8.02;4.18;;;3.90;99.90;;;;;;5034762;28;20213;-60
2021/01/24 10:49:43;;;;;;;4.90;2.60;;;4.00;99.90;;;;;;5035651;28;20235;-59
2021/01/24 10:52:11;;;;;;;3.83;2.95;;;3.80;99.90;;;;;;5035598;28;20209;-58
2021/01/24 10:54:38;;;;;;;3.75;2.40;;;3.90;99.90;;;;;;5035498;28;20643;-56
2021/01/24 10:57:05;;;;;;;3.65;3.05;;;3.90;99.90;;;;;;5036222;28;20174;-58
2021/01/24 10:59:33;;;;;;;5.22;3.13;;;3.90;99.90;;;;;;5035905;28;20665;-56
2021/01/24 11:02:01;;;;;;;7.30;3.70;;;4.00;99.90;;;;;;5036016;28;20729;-57
2021/01/24 11:04:31;;;;;;;11.75;3.42;;;4.00;99.90;;;;;;5035946;28;20174;-60
2021/01/24 11:06:58;;;;;;;7.15;5.25;;;4.10;99.90;;;;;;5035683;28;20178;-57
2021/01/24 11:09:25;;;;;;;7.90;4.85;;;3.70;99.90;;;;;;5035513;28;20216;-60
2021/01/24 11:11:53;;;;;;;7.78;4.40;;;3.40;99.90;;;;;;5035042;28;20220;-59
2021/01/24 11:14:20;;;;;;;4.80;3.75;;;3.40;99.90;;;;;;5035073;28;20174;-59
2021/01/24 11:16:48;;;;;;;11.27;4.65;;;3.30;99.90;;;;;;5035322;28;20557;-58
2021/01/24 11:19:15;;;;;;;3.38;2.92;;;3.40;99.90;;;;;;5035366;28;20174;-56
2021/01/24 11:21:42;;;;;;;9.30;7.32;;;3.40;99.90;;;;;;5035039;28;20212;-59
2021/01/24 11:24:09;;;;;;;4.70;3.17;;;3.30;99.90;;;;;;5035321;28;20209;-59
2021/01/24 11:26:36;;;;;;;4.80;4.38;;;3.20;99.90;;;;;;5035098;28;20201;-60
2021/01/24 11:29:03;;;;;;;5.38;4.00;;;3.30;99.90;;;;;;5017061;28;20213;-58
2021/01/24 11:31:31;;;;;;;5.63;3.83;;;3.50;99.90;;;;;;5034683;28;20705;-55
2021/01/24 11:34:00;;;;;;;4.95;3.70;;;3.20;99.90;;;;;;5035209;28;20174;-58
2021/01/24 11:36:27;;;;;;;5.85;3.80;;;3.00;99.90;;;;;;5072381;22;20290;-54
2021/01/24 11:38:54;;;;;;;5.57;3.15;;;3.10;99.90;;;;;;5033154;28;20188;-50
2021/01/24 11:41:24;;;;;;;6.45;4.97;;;3.20;99.90;;;;;;5032829;28;20267;-53
2021/01/24 11:43:51;;;;;;;4.30;3.90;;;3.40;99.90;;;;;;5033324;28;20759;-53
2021/01/24 11:46:19;;;;;;;7.15;3.88;;;3.50;99.90;;;;;;5033121;28;20194;-53
2021/01/24 11:48:46;;;;;;;4.82;3.58;;;3.60;99.90;;;;;;5030777;28;20678;-52
2021/01/24 11:51:17;;;;;;;5.95;3.97;;;3.60;99.90;;;;;;5033648;28;20233;-49
2021/01/24 11:53:45;;;;;;;7.18;4.30;;;3.60;99.90;;;;;;5033557;28;20201;-49
2021/01/24 11:56:12;;;;;;;6.50;5.05;;;3.70;99.90;;;;;;5033368;28;20540;-53
2021/01/24 11:58:39;;;;;;;6.60;4.93;;;3.60;99.90;;;;;;5032546;28;20190;-50
2021/01/24 12:01:06;;;;;;;8.13;4.97;;;3.40;99.90;;;;;;5015132;28;20587;-52
2021/01/24 12:03:34;;;;;;;4.00;3.25;;;3.30;99.90;;;;;;5031760;28;20199;-52
2021/01/24 12:06:01;;;;;;;8.23;4.97;;;3.30;99.90;;;;;;5032818;28;20177;-52
2021/01/24 12:08:29;;;;;;;8.50;6.82;;;3.30;99.90;;;;;;5032845;28;20201;-52
2021/01/24 12:10:56;;;;;;;5.80;4.30;;;3.10;99.90;;;;;;5032307;28;20209;-53
2021/01/24 12:13:23;;;;;;;5.90;5.25;;;2.90;99.90;;;;;;5032626;28;20264;-52
2021/01/24 12:15:50;;;;;;;6.25;4.50;;;2.70;99.90;;;;;;5032607;28;20649;-53
2021/01/24 12:18:18;;;;;;;5.35;4.05;;;2.60;99.90;;;;;;5032828;28;20170;-48
2021/01/24 12:20:45;;;;;;;10.15;5.32;;;2.40;99.90;;;;;;5031581;28;20243;-48
2021/01/24 12:23:12;;;;;;;5.97;3.90;;;2.40;99.90;;;;;;5032375;28;20232;-51
2021/01/24 12:25:40;;;;;;;6.43;4.22;;;2.40;99.90;;;;;;5032677;28;20197;-49
2021/01/24 12:28:07;;;;;;;7.07;4.85;;;2.50;99.90;;;;;;5032397;28;20252;-50
2021/01/24 12:30:34;;;;;;;7.68;4.60;;;2.60;99.90;;;;;;5032044;28;20211;-51
2021/01/24 12:33:02;;;;;;;10.10;4.32;;;2.50;99.90;;;;;;5032370;28;20173;-48
2021/01/24 12:35:30;;;;;;;10.98;6.10;;;2.70;99.90;;;;;;5032343;28;20207;-47
2021/01/24 12:37:57;;;;;;;5.43;4.88;;;2.60;99.90;;;;;;5033119;28;20178;-55
2021/01/24 12:40:24;;;;;;;5.70;4.95;;;2.80;99.90;;;;;;5033495;28;20263;-55
2021/01/24 12:42:52;;;;;;;38.88;18.10;;;2.80;99.90;;;;;;5032282;28;20217;-57
2021/01/24 12:45:19;;;;;;;8.75;6.78;;;3.00;99.90;;;;;;5035338;28;20634;-56
2021/01/24 12:47:46;;;;;;;14.88;10.48;;;2.90;99.90;;;;;;5034561;28;20690;-58
2021/01/24 12:50:16;;;;;;;83.50;57.13;;;2.80;99.90;;;;;;5034514;28;20220;-56
2021/01/24 12:52:43;;;;;;;11.63;6.95;;;2.70;99.90;;;;;;5034440;28;20185;-58
2021/01/24 12:55:10;;;;;;;12.38;9.85;;;2.70;99.90;;;;;;5032872;28;20223;-51
2021/01/24 12:57:37;;;;;;;8.32;3.90;;;2.50;99.90;;;;;;5031695;28;20260;-54
2021/01/24 13:00:08;;;;;;;11.85;4.25;;;2.60;99.90;;;;;;5032216;28;20177;-52